createdAt,value
2022-10-26T00:00:05.100Z,83.89
2022-10-26T00:02:41.544Z,83.63
2022-10-26T00:05:12.150Z,83.58
2022-10-26T00:07:41.747Z,83.45
2022-10-26T00:10:12.167Z,83.44
2022-10-26T00:12:41.750Z,83.36
2022-10-26T00:15:14.094Z,83.00
2022-10-26T00:17:43.749Z,82.97
2022-10-26T00:20:13.692Z,83.19
2022-10-26T00:22:44.263Z,82.87
2022-10-26T00:25:13.898Z,82.83
2022-10-26T00:27:43.558Z,82.67
2022-10-26T00:30:15.973Z,82.73
2022-10-26T00:32:45.575Z,82.62
2022-10-26T00:35:24.111Z,82.53
2022-10-26T00:38:04.277Z,82.48
2022-10-26T00:40:33.856Z,82.56
2022-10-26T00:43:04.322Z,82.34
2022-10-26T00:45:36.531Z,82.61
2022-10-26T00:48:08.275Z,82.42
2022-10-26T00:50:40.241Z,82.42
2022-10-26T00:53:10.096Z,82.39
2022-10-26T00:55:42.865Z,82.35
2022-10-26T00:58:13.129Z,82.49
2022-10-26T01:00:45.696Z,82.60
2022-10-26T01:03:15.382Z,82.47
2022-10-26T01:05:46.913Z,82.70
2022-10-26T01:08:17.569Z,82.34
2022-10-26T01:10:47.349Z,82.19
2022-10-26T01:13:17.838Z,82.24
2022-10-26T01:15:55.043Z,82.24
2022-10-26T01:18:30.046Z,82.19
2022-10-26T01:21:21.244Z,81.82
2022-10-26T01:24:07.334Z,81.92
2022-10-26T01:30:02.150Z,81.82
2022-10-26T01:32:37.989Z,81.74
2022-10-26T01:35:11.521Z,81.72
2022-10-26T01:37:46.348Z,81.69
2022-10-26T01:40:20.696Z,81.63
2022-10-26T01:42:52.052Z,81.50
2022-10-26T01:45:21.945Z,81.53
2022-10-26T01:47:55.236Z,81.30
2022-10-26T01:50:26.525Z,81.14
2022-10-26T01:52:57.367Z,81.38
2022-10-26T01:55:43.687Z,81.24
2022-10-26T01:58:23.638Z,81.27
2022-10-26T02:01:01.848Z,81.05
2022-10-26T02:03:40.830Z,81.04
2022-10-26T02:06:19.949Z,80.85
2022-10-26T02:08:59.846Z,80.62
2022-10-26T02:11:37.914Z,80.77
2022-10-26T02:16:52.306Z,80.43
2022-10-26T02:19:30.535Z,80.29
2022-10-26T02:22:04.974Z,80.31
2022-10-26T02:24:35.276Z,80.29
2022-10-26T02:27:07.205Z,80.46
2022-10-26T02:29:38.140Z,80.32
2022-10-26T02:32:08.999Z,79.85
2022-10-26T02:34:42.856Z,80.27
2022-10-26T02:37:12.418Z,80.01
2022-10-26T02:39:42.269Z,79.66
2022-10-26T02:42:12.369Z,79.95
2022-10-26T02:44:45.651Z,79.54
2022-10-26T02:47:15.378Z,79.73
2022-10-26T02:49:47.591Z,79.70
2022-10-26T02:52:23.758Z,79.62
2022-10-26T02:54:56.393Z,79.47
2022-10-26T02:57:28.287Z,79.37
2022-10-26T02:59:58.790Z,79.52
2022-10-26T03:02:30.316Z,79.46
2022-10-26T03:05:09.780Z,79.69
2022-10-26T03:07:39.375Z,79.41
2022-10-26T03:10:10.711Z,79.69
2022-10-26T03:12:40.281Z,79.47
2022-10-26T03:15:11.007Z,79.27
2022-10-26T03:17:40.602Z,79.42
2022-10-26T03:20:15.759Z,79.23
2022-10-26T03:22:45.339Z,79.43
2022-10-26T03:25:15.642Z,79.24
2022-10-26T03:27:45.222Z,79.27
2022-10-26T03:30:15.329Z,79.16
2022-10-26T03:32:45.372Z,78.82
2022-10-26T03:35:17.782Z,78.84
2022-10-26T03:37:47.676Z,78.61
2022-10-26T03:40:17.812Z,78.67
2022-10-26T03:42:47.692Z,78.61
2022-10-26T03:45:17.655Z,78.81
2022-10-26T03:47:47.688Z,78.83
2022-10-26T03:50:21.198Z,78.54
2022-10-26T03:52:52.300Z,78.57
2022-10-26T03:55:22.177Z,78.28
2022-10-26T03:57:51.727Z,78.35
2022-10-26T04:00:21.569Z,78.14
2022-10-26T04:02:57.161Z,78.28
2022-10-26T04:05:30.743Z,78.36
2022-10-26T04:08:03.086Z,78.45
2022-10-26T04:10:32.953Z,77.97
2022-10-26T04:13:02.518Z,78.32
2022-10-26T04:15:32.516Z,78.32
2022-10-26T04:18:04.310Z,78.30
2022-10-26T04:20:36.790Z,78.26
2022-10-26T04:23:07.746Z,78.25
2022-10-26T04:25:37.413Z,77.85
2022-10-26T04:28:08.249Z,78.14
2022-10-26T04:30:38.403Z,78.11
2022-10-26T04:33:09.401Z,78.01
2022-10-26T04:35:42.975Z,77.90
2022-10-26T04:38:13.213Z,77.82
2022-10-26T04:40:42.817Z,77.86
2022-10-26T04:43:12.381Z,77.80
2022-10-26T04:45:41.959Z,77.84
2022-10-26T04:48:14.202Z,77.86
2022-10-26T04:50:46.408Z,77.73
2022-10-26T04:53:15.974Z,77.77
2022-10-26T04:55:45.563Z,77.57
2022-10-26T04:58:15.332Z,77.22
2022-10-26T05:00:44.924Z,77.26
2022-10-26T05:03:14.452Z,76.98
2022-10-26T05:05:47.753Z,77.08
2022-10-26T05:08:17.403Z,76.97
2022-10-26T05:10:51.136Z,76.65
2022-10-26T05:13:20.719Z,76.68
2022-10-26T05:15:50.439Z,76.78
2022-10-26T05:18:19.983Z,76.93
2022-10-26T05:20:55.302Z,76.75
2022-10-26T05:23:25.047Z,76.90
2022-10-26T05:25:54.578Z,76.63
2022-10-26T05:28:24.572Z,76.56
2022-10-26T05:30:54.162Z,76.75
2022-10-26T05:33:23.708Z,76.32
2022-10-26T05:35:58.362Z,76.04
2022-10-26T05:38:27.894Z,75.95
2022-10-26T05:40:59.101Z,75.91
2022-10-26T05:43:28.694Z,75.83
2022-10-26T05:45:58.744Z,75.52
2022-10-26T05:48:28.307Z,75.41
2022-10-26T05:51:01.761Z,75.44
2022-10-26T05:53:31.340Z,75.13
2022-10-26T05:56:01.666Z,74.96
2022-10-26T05:58:32.951Z,74.67
2022-10-26T06:01:11.596Z,74.52
2022-10-26T06:03:51.969Z,74.37
2022-10-26T06:06:25.280Z,73.96
2022-10-26T06:08:55.506Z,73.93
2022-10-26T06:11:25.718Z,73.62
2022-10-26T06:14:00.300Z,73.33
2022-10-26T06:16:36.030Z,73.28
2022-10-26T06:19:10.875Z,73.28
2022-10-26T06:21:57.052Z,72.83
2022-10-26T06:24:32.021Z,73.06
2022-10-26T06:27:06.460Z,72.69
2022-10-26T06:29:48.576Z,72.40
2022-10-26T06:32:18.343Z,72.30
2022-10-26T06:34:50.819Z,72.12
2022-10-26T06:37:23.504Z,72.24
2022-10-26T06:39:54.790Z,72.11
2022-10-26T06:42:25.006Z,71.97
2022-10-26T06:44:55.225Z,71.83
2022-10-26T06:47:28.938Z,71.80
2022-10-26T06:50:04.346Z,72.10
2022-10-26T06:52:43.041Z,71.99
2022-10-26T06:55:17.042Z,71.75
2022-10-26T06:57:46.899Z,72.24
2022-10-26T07:00:22.534Z,71.79
2022-10-26T07:02:52.986Z,72.09
2022-10-26T07:05:23.394Z,71.99
2022-10-26T07:07:55.565Z,72.14
2022-10-26T07:10:25.206Z,72.03
2022-10-26T07:12:54.796Z,71.90
2022-10-26T07:15:24.327Z,71.86
2022-10-26T07:17:53.895Z,71.85
2022-10-26T07:20:24.351Z,71.84
2022-10-26T07:22:59.662Z,71.88
2022-10-26T07:25:30.819Z,71.86
2022-10-26T07:28:01.217Z,71.86
2022-10-26T07:30:31.165Z,71.58
2022-10-26T07:33:04.153Z,71.58
2022-10-26T07:35:33.702Z,71.69
2022-10-26T07:38:05.908Z,71.12
2022-10-26T07:40:35.472Z,71.22
2022-10-26T07:43:05.084Z,70.89
2022-10-26T07:45:35.271Z,70.41
2022-10-26T07:48:04.924Z,69.27
2022-10-26T07:50:34.522Z,67.19
2022-10-26T07:53:06.629Z,64.51
2022-10-26T07:55:36.190Z,62.39
2022-10-26T07:58:05.804Z,61.40
2022-10-26T08:00:35.498Z,61.22
2022-10-26T08:03:05.144Z,59.78
2022-10-26T08:05:34.760Z,58.44
2022-10-26T08:08:07.476Z,56.88
2022-10-26T08:10:37.330Z,55.88
2022-10-26T08:13:06.888Z,54.91
2022-10-26T08:15:36.413Z,54.75
2022-10-26T08:18:06.474Z,53.96
2022-10-26T08:20:36.381Z,52.89
2022-10-26T08:23:08.697Z,51.52
2022-10-26T08:25:38.220Z,50.92
2022-10-26T08:28:08.186Z,50.13
2022-10-26T08:30:38.081Z,49.32
2022-10-26T08:33:10.282Z,48.63
2022-10-26T08:35:39.842Z,47.32
2022-10-26T08:38:11.989Z,46.39
2022-10-26T08:40:43.424Z,46.13
2022-10-26T08:43:18.056Z,45.68
2022-10-26T08:45:52.142Z,44.75
2022-10-26T08:48:24.396Z,44.26
2022-10-26T08:50:56.135Z,45.46
2022-10-26T08:53:32.890Z,45.92
2022-10-26T08:56:05.479Z,48.39
2022-10-26T08:58:40.693Z,49.89
2022-10-26T09:01:11.522Z,51.15
2022-10-26T09:03:41.349Z,52.06
2022-10-26T09:06:24.300Z,53.27
2022-10-26T09:09:06.742Z,54.33
2022-10-26T09:11:55.541Z,54.97
2022-10-26T09:14:32.133Z,53.35
2022-10-26T09:17:11.682Z,51.95
2022-10-26T09:20:02.754Z,50.76
2022-10-26T09:22:38.252Z,51.31
2022-10-26T09:25:19.363Z,52.32
2022-10-26T09:27:51.634Z,52.88
2022-10-26T09:30:23.705Z,53.44
2022-10-26T09:32:55.582Z,53.18
2022-10-26T09:35:26.810Z,52.54
2022-10-26T09:37:59.163Z,52.69
2022-10-26T09:40:36.488Z,53.68
2022-10-26T09:43:09.707Z,54.44
2022-10-26T09:45:41.404Z,53.50
2022-10-26T09:48:15.282Z,52.25
2022-10-26T09:50:47.861Z,52.14
2022-10-26T09:53:17.594Z,52.76
2022-10-26T09:55:51.277Z,51.20
2022-10-26T09:58:23.305Z,50.88
2022-10-26T10:00:53.441Z,50.05
2022-10-26T10:03:25.581Z,50.36
2022-10-26T10:05:55.910Z,50.88
2022-10-26T10:08:26.417Z,51.48
2022-10-26T10:11:10.431Z,52.65
2022-10-26T10:13:40.379Z,53.26
2022-10-26T10:16:14.226Z,53.54
2022-10-26T10:18:44.601Z,54.51
2022-10-26T10:21:14.366Z,55.43
2022-10-26T10:23:52.207Z,55.87
2022-10-26T10:26:24.346Z,56.69
2022-10-26T10:29:01.050Z,57.33
2022-10-26T10:31:32.343Z,58.01
2022-10-26T10:34:02.304Z,57.98
2022-10-26T10:36:32.900Z,58.71
2022-10-26T10:39:02.791Z,59.35
2022-10-26T10:41:37.889Z,59.53
2022-10-26T10:44:10.706Z,59.80
2022-10-26T10:46:40.523Z,59.73
2022-10-26T10:49:20.794Z,60.00
2022-10-26T10:51:51.413Z,60.39
2022-10-26T10:54:25.350Z,60.85
2022-10-26T10:56:58.852Z,61.14
2022-10-26T10:59:48.001Z,61.50
2022-10-26T11:02:48.277Z,61.57
2022-10-26T11:05:33.921Z,61.79
2022-10-26T11:08:07.414Z,61.53
2022-10-26T11:10:39.212Z,61.58
2022-10-26T11:13:19.960Z,61.76
2022-10-26T11:15:51.213Z,61.88
2022-10-26T11:18:22.728Z,61.49
2022-10-26T11:20:54.501Z,62.05
2022-10-26T11:23:26.753Z,62.29
2022-10-26T11:26:00.138Z,62.17
2022-10-26T11:28:42.005Z,62.25
2022-10-26T11:31:14.666Z,62.49
2022-10-26T11:33:47.551Z,62.15
2022-10-26T11:36:21.978Z,62.72
2022-10-26T11:38:57.105Z,62.63
2022-10-26T11:41:28.875Z,62.81
2022-10-26T11:44:05.866Z,62.50
2022-10-26T11:46:39.932Z,62.33
2022-10-26T11:49:17.367Z,62.09
2022-10-26T11:51:51.595Z,62.33
2022-10-26T11:54:25.268Z,62.03
2022-10-26T11:56:56.701Z,62.08
2022-10-26T11:59:33.321Z,61.95
2022-10-26T12:02:07.592Z,61.94
2022-10-26T12:04:38.329Z,62.44
2022-10-26T12:07:12.558Z,62.21
2022-10-26T12:09:44.346Z,62.67
2022-10-26T12:12:20.016Z,62.26
2022-10-26T12:14:55.570Z,62.36
2022-10-26T12:17:29.785Z,62.53
2022-10-26T12:20:06.646Z,62.51
2022-10-26T12:22:40.111Z,62.18
2022-10-26T12:25:21.450Z,62.40
2022-10-26T12:27:58.457Z,61.95
2022-10-26T12:30:32.911Z,61.25
2022-10-26T12:33:03.960Z,60.88
2022-10-26T12:35:47.305Z,60.69
2022-10-26T12:38:53.720Z,60.77
2022-10-26T12:41:25.684Z,60.39
2022-10-26T12:43:59.791Z,60.75
2022-10-26T12:46:47.778Z,60.41
2022-10-26T12:50:02.182Z,60.25
2022-10-26T12:52:34.643Z,60.38
2022-10-26T12:55:24.343Z,60.44
2022-10-26T12:58:03.746Z,60.10
2022-10-26T13:03:16.798Z,60.56
2022-10-26T13:06:04.800Z,60.55
2022-10-26T13:08:42.246Z,60.57
2022-10-26T13:11:19.956Z,60.64
2022-10-26T13:13:56.297Z,60.70
2022-10-26T13:16:27.277Z,60.95
2022-10-26T13:18:59.966Z,60.78
2022-10-26T13:21:30.288Z,61.31
2022-10-26T13:24:01.730Z,61.42
2022-10-26T13:26:32.738Z,61.60
2022-10-26T13:29:03.285Z,61.02
2022-10-26T13:32:05.329Z,61.30
2022-10-26T13:34:37.470Z,60.83
2022-10-26T13:37:13.349Z,60.82
2022-10-26T13:39:45.359Z,61.07
2022-10-26T13:42:18.589Z,61.41
2022-10-26T13:44:53.914Z,61.09
2022-10-26T13:47:28.413Z,61.21
2022-10-26T13:50:03.481Z,61.11
2022-10-26T13:52:37.068Z,60.92
2022-10-26T13:55:11.852Z,61.17
2022-10-26T13:57:45.183Z,60.97
2022-10-26T14:00:20.621Z,61.16
2022-10-26T14:02:50.942Z,61.48
2022-10-26T14:05:23.433Z,61.47
2022-10-26T14:07:56.974Z,60.95
2022-10-26T14:10:30.857Z,61.22
2022-10-26T14:13:00.791Z,60.91
2022-10-26T14:15:32.967Z,60.70
2022-10-26T14:18:04.338Z,60.39
2022-10-26T14:20:36.555Z,60.48
2022-10-26T14:23:06.669Z,60.39
2022-10-26T14:25:47.880Z,60.37
2022-10-26T14:28:26.498Z,60.57
2022-10-26T14:30:57.283Z,60.56
2022-10-26T14:33:30.825Z,60.11
2022-10-26T14:36:03.114Z,60.23
2022-10-26T14:38:34.401Z,60.56
2022-10-26T14:41:04.068Z,60.04
2022-10-26T14:43:34.139Z,60.10
2022-10-26T14:46:03.742Z,60.04
2022-10-26T14:48:35.388Z,59.78
2022-10-26T14:51:12.842Z,60.02
2022-10-26T14:53:43.886Z,59.53
2022-10-26T14:56:31.751Z,60.10
2022-10-26T14:59:01.932Z,60.08
2022-10-26T15:01:35.984Z,60.06
2022-10-26T15:04:08.022Z,59.90
2022-10-26T15:06:43.134Z,60.18
2022-10-26T15:09:45.123Z,60.51
2022-10-26T15:12:22.960Z,60.61
2022-10-26T15:14:53.233Z,60.85
2022-10-26T15:17:27.689Z,61.46
2022-10-26T15:19:57.912Z,61.02
2022-10-26T15:22:32.372Z,61.50
2022-10-26T15:25:04.646Z,62.05
2022-10-26T15:27:34.866Z,62.44
2022-10-26T15:30:22.967Z,62.39
2022-10-26T15:32:53.005Z,63.04
2022-10-26T15:35:33.693Z,63.11
2022-10-26T15:38:05.869Z,63.04
2022-10-26T15:40:37.154Z,63.62
2022-10-26T15:43:06.720Z,63.74
2022-10-26T15:45:52.154Z,63.90
2022-10-26T15:48:27.147Z,64.55
2022-10-26T15:50:56.734Z,64.91
2022-10-26T15:53:30.535Z,65.01
2022-10-26T15:56:01.972Z,65.05
2022-10-26T15:58:32.364Z,65.26
2022-10-26T16:01:01.964Z,65.35
2022-10-26T16:03:31.988Z,65.90
2022-10-26T16:06:03.728Z,66.15
2022-10-26T16:08:36.129Z,66.27
2022-10-26T16:11:05.706Z,66.38
2022-10-26T16:13:35.267Z,66.71
2022-10-26T16:16:04.886Z,67.20
2022-10-26T16:18:34.438Z,67.00
2022-10-26T16:21:04.025Z,67.74
2022-10-26T16:23:36.189Z,67.99
2022-10-26T16:26:06.912Z,68.13
2022-10-26T16:28:36.518Z,68.47
2022-10-26T16:31:07.702Z,68.62
2022-10-26T16:33:37.681Z,68.48
2022-10-26T16:36:08.327Z,68.52
2022-10-26T16:38:40.542Z,69.09
2022-10-26T16:41:11.977Z,69.43
2022-10-26T16:43:43.569Z,69.37
2022-10-26T16:46:15.204Z,69.35
2022-10-26T16:48:46.791Z,69.99
2022-10-26T16:51:17.957Z,69.80
2022-10-26T16:53:50.799Z,70.63
2022-10-26T16:56:22.325Z,70.44
2022-10-26T16:58:52.282Z,70.53
2022-10-26T17:01:24.161Z,70.62
2022-10-26T17:03:54.918Z,70.89
2022-10-26T17:06:24.522Z,70.58
2022-10-26T17:08:56.665Z,70.69
2022-10-26T17:11:26.244Z,70.49
2022-10-26T17:13:57.396Z,70.38
2022-10-26T17:16:27.610Z,70.71
2022-10-26T17:18:57.208Z,70.76
2022-10-26T17:21:32.066Z,71.08
2022-10-26T17:24:04.600Z,70.90
2022-10-26T17:26:34.160Z,71.23
2022-10-26T17:29:03.824Z,71.33
2022-10-26T17:31:33.452Z,71.13
2022-10-26T17:34:03.033Z,71.44
2022-10-26T17:36:32.604Z,71.63
2022-10-26T17:39:04.888Z,72.15
2022-10-26T17:41:34.476Z,72.45
2022-10-26T17:44:04.070Z,72.52
2022-10-26T17:46:34.075Z,72.73
2022-10-26T17:49:03.848Z,72.81
2022-10-26T17:51:33.647Z,72.07
2022-10-26T17:54:05.951Z,71.55
2022-10-26T17:56:36.270Z,71.72
2022-10-26T17:59:08.410Z,72.02
2022-10-26T18:01:38.093Z,72.07
2022-10-26T18:04:08.064Z,72.28
2022-10-26T18:06:37.678Z,71.68
2022-10-26T18:09:10.182Z,71.53
2022-10-26T18:11:39.987Z,71.80
2022-10-26T18:14:09.551Z,72.26
2022-10-26T18:16:39.284Z,72.18
2022-10-26T18:19:09.313Z,72.47
2022-10-26T18:21:40.148Z,72.16
2022-10-26T18:24:12.726Z,72.06
2022-10-26T18:26:42.312Z,72.10
2022-10-26T18:29:14.194Z,72.31
2022-10-26T18:31:43.804Z,72.56
2022-10-26T18:34:13.500Z,72.41
2022-10-26T18:36:43.049Z,72.98
2022-10-26T18:39:15.183Z,72.98
2022-10-26T18:41:44.799Z,73.16
2022-10-26T18:44:14.425Z,73.40
2022-10-26T18:46:47.790Z,73.34
2022-10-26T18:49:19.372Z,73.67
2022-10-26T18:51:49.233Z,73.89
2022-10-26T18:54:21.385Z,73.74
2022-10-26T18:56:50.975Z,74.18
2022-10-26T18:59:20.563Z,73.76
2022-10-26T19:01:52.069Z,74.20
2022-10-26T19:04:21.764Z,74.35
2022-10-26T19:06:51.601Z,74.38
2022-10-26T19:09:25.405Z,74.20
2022-10-26T19:11:55.410Z,73.88
2022-10-26T19:14:25.925Z,73.88
2022-10-26T19:16:55.704Z,73.84
2022-10-26T19:19:25.394Z,74.18
2022-10-26T19:21:54.997Z,74.36
2022-10-26T19:24:27.231Z,74.63
2022-10-26T19:26:56.816Z,75.02
2022-10-26T19:29:26.362Z,75.52
2022-10-26T19:31:55.941Z,75.69
2022-10-26T19:34:26.160Z,75.90
2022-10-26T19:36:55.737Z,75.95
2022-10-26T19:39:27.905Z,76.35
2022-10-26T19:41:57.485Z,76.37
2022-10-26T19:44:27.025Z,76.74
2022-10-26T19:46:56.598Z,76.83
2022-10-26T19:49:26.270Z,76.86
2022-10-26T19:51:57.994Z,77.18
2022-10-26T19:54:30.181Z,77.37
2022-10-26T19:56:59.766Z,77.61
2022-10-26T19:59:29.525Z,77.50
2022-10-26T20:02:00.444Z,77.81
2022-10-26T20:04:30.046Z,77.78
2022-10-26T20:06:59.877Z,78.04
2022-10-26T20:09:32.791Z,78.50
2022-10-26T20:12:02.380Z,78.34
2022-10-26T20:14:31.941Z,78.77
2022-10-26T20:17:01.519Z,78.89
2022-10-26T20:19:31.169Z,79.16
2022-10-26T20:22:00.821Z,78.95
2022-10-26T20:24:33.022Z,79.16
2022-10-26T20:27:02.608Z,79.51
2022-10-26T20:29:32.203Z,79.65
2022-10-26T20:32:02.297Z,79.86
2022-10-26T20:34:31.931Z,79.63
2022-10-26T20:37:01.495Z,80.00
2022-10-26T20:39:34.271Z,80.25
2022-10-26T20:42:04.577Z,80.08
2022-10-26T20:44:38.329Z,79.91
2022-10-26T20:47:08.608Z,79.97
2022-10-26T20:49:38.925Z,80.26
2022-10-26T20:52:21.226Z,80.57
2022-10-26T20:54:57.124Z,80.31
2022-10-26T20:57:31.178Z,80.65
2022-10-26T21:00:03.820Z,80.39
2022-10-26T21:02:33.643Z,80.51
2022-10-26T21:05:03.274Z,80.77
2022-10-26T21:07:32.915Z,80.82
2022-10-26T21:10:05.241Z,81.37
2022-10-26T21:12:34.850Z,81.38
2022-10-26T21:15:04.514Z,81.38
2022-10-26T21:17:34.453Z,81.71
2022-10-26T21:20:04.064Z,81.71
2022-10-26T21:22:33.602Z,81.87
2022-10-26T21:25:06.149Z,81.99
2022-10-26T21:27:35.765Z,81.99
2022-10-26T21:30:05.817Z,82.17
2022-10-26T21:32:35.380Z,82.16
2022-10-26T21:35:04.941Z,82.52
2022-10-26T21:37:34.521Z,82.20
2022-10-26T21:40:07.637Z,82.22
2022-10-26T21:42:37.224Z,82.35
2022-10-26T21:45:07.829Z,82.52
2022-10-26T21:47:37.344Z,82.45
2022-10-26T21:50:07.250Z,82.74
2022-10-26T21:52:36.814Z,82.75
2022-10-26T21:55:09.550Z,82.67
2022-10-26T21:57:39.215Z,83.10
2022-10-26T22:00:10.640Z,83.31
2022-10-26T22:02:42.615Z,83.26
2022-10-26T22:05:12.197Z,83.47
2022-10-26T22:07:41.741Z,83.61
2022-10-26T22:10:13.950Z,83.63
2022-10-26T22:12:43.525Z,84.06
2022-10-26T22:15:13.582Z,83.99
2022-10-26T22:17:43.169Z,84.25
2022-10-26T22:20:14.363Z,84.39
2022-10-26T22:22:44.018Z,84.36
2022-10-26T22:25:16.330Z,84.52
2022-10-26T22:27:45.873Z,84.81
2022-10-26T22:30:15.841Z,84.64
2022-10-26T22:32:45.406Z,84.79
2022-10-26T22:35:29.125Z,84.80
2022-10-26T22:37:59.427Z,84.76
2022-10-26T22:40:31.592Z,84.83
2022-10-26T22:43:01.170Z,85.03
2022-10-26T22:45:30.720Z,84.95
2022-10-26T22:48:00.274Z,85.08
2022-10-26T22:50:29.890Z,85.06
2022-10-26T22:52:59.464Z,85.03
2022-10-26T22:55:31.623Z,85.32
2022-10-26T22:58:01.161Z,85.40
2022-10-26T23:00:30.696Z,85.37
2022-10-26T23:03:00.229Z,85.39
2022-10-26T23:05:29.760Z,85.51
2022-10-26T23:07:59.345Z,85.41
2022-10-26T23:10:31.555Z,85.33
2022-10-26T23:13:01.133Z,85.36
2022-10-26T23:15:31.165Z,85.40
2022-10-26T23:18:00.721Z,85.27
2022-10-26T23:20:30.293Z,85.31
2022-10-26T23:22:59.875Z,84.96
2022-10-26T23:25:32.020Z,85.17
2022-10-26T23:28:01.565Z,85.36
2022-10-26T23:30:31.121Z,85.23
2022-10-26T23:33:00.704Z,85.31
2022-10-26T23:35:30.332Z,85.32
2022-10-26T23:38:00.470Z,85.25
2022-10-26T23:40:32.706Z,85.40
2022-10-26T23:43:02.271Z,85.63
2022-10-26T23:45:31.833Z,85.50
2022-10-26T23:48:01.395Z,85.80
2022-10-26T23:50:30.950Z,86.11
2022-10-26T23:53:00.522Z,86.12
2022-10-26T23:55:32.934Z,86.28
2022-10-26T23:58:02.999Z,86.53
